Time;durP1;ratioP1;P1;durP2;ratioP2;P2;SDS_P1;SDS_P2;PMS_P1;PMS_P2;Temp;Humidity;BMP_temperature;BMP_pressure;BME280_temperature;BME280_humidity;BME280_pressure;Samples;Min_cycle;Max_cycle;Signal;HPM_P1;HPM_P2
2020/12/04 00:02:16;;;;;;;17.27;10.27;;;2.20;66.80;;;;;;4994193;28;20060;-81
2020/12/04 00:04:43;;;;;;;17.80;10.77;;;2.20;66.70;;;;;;5008683;28;20046;-80
2020/12/04 00:07:12;;;;;;;18.30;10.77;;;2.20;66.70;;;;;;5013655;28;20506;-80
2020/12/04 00:09:42;;;;;;;17.50;10.85;;;2.20;66.70;;;;;;5013741;28;20475;-80
2020/12/04 00:12:11;;;;;;;18.20;10.43;;;2.20;66.60;;;;;;5013752;28;20482;-80
2020/12/04 00:15:00;;;;;;;16.75;10.25;;;2.30;66.50;;;;;;5013283;28;20022;-80
2020/12/04 00:17:38;;;;;;;14.63;9.75;;;2.40;66.10;;;;;;5013730;28;20049;-80
2020/12/04 00:20:13;;;;;;;18.20;10.05;;;2.40;65.90;;;;;;5013789;28;20446;-80
2020/12/04 00:22:52;;;;;;;15.63;9.70;;;2.40;65.50;;;;;;5012612;28;20045;-82
2020/12/04 00:25:21;;;;;;;16.08;9.55;;;2.40;65.00;;;;;;5013744;28;20018;-81
2020/12/04 00:27:59;;;;;;;13.95;9.25;;;2.40;64.30;;;;;;4996293;28;20427;-82
2020/12/04 00:30:27;;;;;;;16.83;9.50;;;2.40;63.40;;;;;;4986743;28;20041;-80
2020/12/04 00:32:58;;;;;;;12.95;8.40;;;2.50;63.10;;;;;;4996951;28;20030;-81
2020/12/04 00:35:25;;;;;;;12.00;7.30;;;2.50;62.50;;;;;;4996637;28;20467;-81
2020/12/04 00:37:51;;;;;;;12.20;8.32;;;2.50;62.00;;;;;;5013512;28;20033;-81
2020/12/04 00:40:17;;;;;;;11.48;7.30;;;2.50;61.80;;;;;;4995671;28;20029;-81
2020/12/04 00:42:47;;;;;;;13.07;7.57;;;2.60;61.40;;;;;;4980026;28;20062;-82
2020/12/04 00:45:16;;;;;;;11.18;7.30;;;2.60;61.00;;;;;;4995632;28;20044;-81
2020/12/04 00:47:43;;;;;;;15.38;9.15;;;2.70;61.20;;;;;;4979262;28;20121;-81
2020/12/04 00:50:10;;;;;;;14.75;8.98;;;2.80;61.60;;;;;;4963308;28;20041;-81
2020/12/04 00:52:40;;;;;;;15.80;9.95;;;2.70;62.10;;;;;;4996261;28;20032;-82
2020/12/04 00:55:07;;;;;;;18.38;10.80;;;2.70;62.50;;;;;;4996338;28;20024;-81
2020/12/04 00:57:33;;;;;;;16.60;10.18;;;2.70;62.90;;;;;;5000172;28;20041;-82
2020/12/04 01:00:03;;;;;;;17.27;10.20;;;2.60;63.30;;;;;;4999870;28;20399;-82
2020/12/04 01:02:30;;;;;;;18.05;10.60;;;2.60;63.40;;;;;;5017871;28;20434;-82
2020/12/04 01:04:58;;;;;;;17.88;9.65;;;2.50;63.50;;;;;;4999647;28;20042;-81
2020/12/04 01:07:25;;;;;;;14.93;8.75;;;2.40;63.80;;;;;;4996051;28;20065;-82
2020/12/04 01:09:52;;;;;;;17.33;10.48;;;2.40;64.30;;;;;;4967542;28;20030;-83
2020/12/04 01:12:18;;;;;;;16.83;10.27;;;2.30;64.60;;;;;;5000316;28;20656;-83
2020/12/04 01:14:48;;;;;;;15.57;9.85;;;2.30;65.00;;;;;;4983575;28;20478;-83
2020/12/04 01:17:15;;;;;;;16.08;10.15;;;2.30;65.10;;;;;;4983489;28;20045;-82
2020/12/04 01:19:48;;;;;;;18.83;10.05;;;2.40;65.10;;;;;;5015560;28;20088;-83
2020/12/04 01:22:19;;;;;;;18.40;10.85;;;2.40;65.60;;;;;;5017050;28;20033;-81
2020/12/04 01:24:48;;;;;;;14.30;9.48;;;2.40;64.90;;;;;;4999613;28;20049;-81
2020/12/04 01:27:14;;;;;;;15.07;9.40;;;2.30;65.10;;;;;;4983772;28;20026;-81
2020/12/04 01:29:40;;;;;;;15.18;9.98;;;2.40;65.10;;;;;;4982981;28;20045;-81
2020/12/04 01:32:13;;;;;;;14.02;8.73;;;2.30;65.30;;;;;;5016577;28;20498;-80
2020/12/04 01:34:40;;;;;;;14.07;8.88;;;2.40;65.20;;;;;;5016855;28;20030;-81
2020/12/04 01:37:07;;;;;;;13.95;8.50;;;2.40;65.00;;;;;;4999284;28;20141;-82
2020/12/04 01:39:34;;;;;;;14.75;7.97;;;2.40;64.40;;;;;;4983001;28;20092;-80
2020/12/04 01:42:02;;;;;;;11.70;7.20;;;2.40;64.00;;;;;;4999039;28;20018;-81
2020/12/04 01:44:28;;;;;;;12.13;7.78;;;2.40;63.60;;;;;;4999152;28;20084;-81
2020/12/04 01:46:54;;;;;;;12.45;7.38;;;2.50;63.50;;;;;;4998778;28;20022;-81
2020/12/04 01:49:20;;;;;;;11.60;7.45;;;2.50;63.10;;;;;;4996926;28;20077;-81
2020/12/04 01:51:48;;;;;;;12.07;7.35;;;2.50;62.50;;;;;;4999239;28;20054;-81
2020/12/04 01:54:15;;;;;;;12.18;7.68;;;2.60;62.10;;;;;;4998715;28;20033;-80
2020/12/04 01:56:41;;;;;;;11.30;7.22;;;2.60;62.20;;;;;;4998770;28;20055;-80
2020/12/04 01:59:07;;;;;;;13.10;7.47;;;2.60;61.90;;;;;;5015521;28;20094;-82
2020/12/04 02:01:38;;;;;;;14.10;7.45;;;2.60;61.60;;;;;;5016360;28;20113;-82
2020/12/04 02:04:11;;;;;;;12.70;7.00;;;2.60;61.50;;;;;;5015962;28;20042;-82
2020/12/04 02:06:42;;;;;;;15.02;7.63;;;2.70;61.50;;;;;;5016111;28;20415;-82
2020/12/04 02:09:13;;;;;;;14.30;7.70;;;2.60;61.20;;;;;;5016157;28;20022;-81
2020/12/04 02:11:40;;;;;;;12.10;7.72;;;2.70;61.60;;;;;;4998365;28;20057;-80
2020/12/04 02:14:08;;;;;;;15.38;9.10;;;2.60;61.80;;;;;;4997891;28;20113;-80
2020/12/04 02:16:38;;;;;;;13.88;8.00;;;2.60;62.30;;;;;;5015807;28;20030;-81
2020/12/04 02:19:04;;;;;;;11.63;7.60;;;2.50;62.80;;;;;;4997918;28;20022;-81
2020/12/04 02:21:30;;;;;;;12.88;7.60;;;2.40;63.20;;;;;;4998164;28;20032;-80
2020/12/04 02:23:56;;;;;;;10.13;6.50;;;2.40;63.60;;;;;;4998499;28;20050;-81
2020/12/04 02:26:22;;;;;;;10.25;6.28;;;2.40;63.70;;;;;;5015417;28;20120;-81
2020/12/04 02:28:49;;;;;;;10.15;6.53;;;2.50;64.40;;;;;;4998187;28;20026;-80
2020/12/04 02:31:16;;;;;;;11.50;6.68;;;2.50;63.50;;;;;;4981532;28;20030;-81
2020/12/04 02:33:42;;;;;;;12.90;8.00;;;2.50;63.60;;;;;;4995843;28;20058;-82
2020/12/04 02:36:13;;;;;;;13.88;8.93;;;2.60;63.60;;;;;;4997833;28;20053;-80
2020/12/04 02:38:39;;;;;;;17.10;8.52;;;2.60;64.00;;;;;;4997944;28;20137;-81
2020/12/04 02:41:07;;;;;;;16.25;8.75;;;2.60;64.30;;;;;;5014367;28;20041;-80
2020/12/04 02:43:35;;;;;;;14.63;8.73;;;2.50;64.50;;;;;;4997764;28;20041;-80
2020/12/04 02:46:07;;;;;;;14.98;9.05;;;2.50;64.70;;;;;;4997839;28;20034;-80
2020/12/04 02:48:35;;;;;;;14.23;8.45;;;2.40;65.80;;;;;;5014659;28;20509;-79
2020/12/04 02:51:00;;;;;;;13.93;8.75;;;2.40;65.20;;;;;;4997391;28;20033;-80
2020/12/04 02:53:27;;;;;;;17.08;8.38;;;2.40;65.20;;;;;;5015166;28;20037;-80
2020/12/04 02:55:57;;;;;;;14.50;7.38;;;2.40;65.20;;;;;;5014999;28;20030;-80
2020/12/04 02:58:30;;;;;;;10.40;7.15;;;2.40;65.20;;;;;;5014169;28;20030;-79
2020/12/04 03:01:00;;;;;;;;;;;2.50;64.90;;;;;;5015338;28;20034;-79
2020/12/04 03:03:27;;;;;;;13.38;6.80;;;2.50;64.50;;;;;;4996009;28;20001;-78
2020/12/04 03:05:54;;;;;;;15.43;7.10;;;2.60;64.20;;;;;;5014744;28;20540;-79
2020/12/04 03:08:45;;;;;;;11.95;7.18;;;2.60;63.80;;;;;;4997531;28;20038;-80
2020/12/04 03:11:11;;;;;;;17.83;6.00;;;2.60;63.60;;;;;;5014668;28;20506;-80
2020/12/04 03:13:41;;;;;;;10.55;6.65;;;2.70;63.40;;;;;;4997176;28;20038;-81
2020/12/04 03:16:29;;;;;;;11.50;5.78;;;2.70;63.00;;;;;;5000107;28;20108;-81
2020/12/04 03:18:58;;;;;;;10.10;6.30;;;2.80;62.90;;;;;;4996679;28;20486;-79
2020/12/04 03:21:30;;;;;;;8.30;5.45;;;2.80;62.50;;;;;;4996101;28;20045;-80
2020/12/04 03:24:07;;;;;;;8.93;4.95;;;2.90;62.50;;;;;;4998000;28;20042;-80
2020/12/04 03:26:33;;;;;;;9.88;5.40;;;2.90;62.30;;;;;;4996950;28;20104;-80
2020/12/04 03:28:58;;;;;;;5.68;3.38;;;2.90;62.10;;;;;;5013974;28;20424;-80
2020/12/04 03:31:24;;;;;;;6.60;4.07;;;3.00;60.80;;;;;;4996846;28;20030;-80
2020/12/04 03:33:50;;;;;;;7.00;4.32;;;3.20;59.40;;;;;;4996794;28;20080;-81
2020/12/04 03:36:15;;;;;;;4.57;3.40;;;3.30;59.10;;;;;;4996636;28;20487;-81
2020/12/04 03:38:42;;;;;;;7.50;4.28;;;3.30;58.90;;;;;;4996607;28;20022;-80
2020/12/04 03:41:08;;;;;;;6.30;4.22;;;3.40;59.00;;;;;;4996510;28;20544;-80
2020/12/04 03:43:40;;;;;;;6.50;4.28;;;3.40;59.00;;;;;;5014267;28;20096;-80
2020/12/04 03:46:11;;;;;;;8.10;4.55;;;3.50;59.20;;;;;;5014172;28;20033;-79
2020/12/04 03:48:38;;;;;;;7.15;4.25;;;3.50;59.30;;;;;;5014153;28;20025;-80
2020/12/04 03:51:04;;;;;;;7.97;4.50;;;3.40;59.10;;;;;;5014040;28;20367;-81
2020/12/04 03:53:31;;;;;;;5.88;4.00;;;3.40;59.10;;;;;;4980410;28;20117;-80
2020/12/04 03:56:03;;;;;;;7.15;4.30;;;3.40;59.20;;;;;;5013872;28;20029;-80
2020/12/04 03:58:29;;;;;;;8.52;6.22;;;3.40;59.40;;;;;;4996351;28;20026;-80
2020/12/04 04:00:56;;;;;;;9.27;5.70;;;3.40;59.60;;;;;;4996253;28;20506;-80
2020/12/04 04:03:29;;;;;;;12.50;6.10;;;3.40;60.10;;;;;;4996184;28;20099;-82
2020/12/04 04:05:55;;;;;;;11.13;6.70;;;3.30;60.70;;;;;;4996647;28;20030;-81
2020/12/04 04:08:20;;;;;;;10.60;6.95;;;3.30;61.30;;;;;;5014046;28;20036;-81
2020/12/04 04:10:46;;;;;;;10.82;6.88;;;3.20;61.90;;;;;;4979707;28;20098;-80
2020/12/04 04:13:12;;;;;;;8.95;6.07;;;3.10;62.30;;;;;;5013653;28;20037;-79
2020/12/04 04:15:38;;;;;;;11.18;5.88;;;3.00;62.60;;;;;;4995843;28;20060;-79
2020/12/04 04:18:05;;;;;;;7.07;5.10;;;3.00;62.60;;;;;;4995993;28;20034;-81
2020/12/04 04:20:37;;;;;;;9.48;5.53;;;3.00;62.50;;;;;;4995438;28;20061;-81
2020/12/04 04:23:05;;;;;;;9.60;6.43;;;3.10;62.40;;;;;;4995917;28;20030;-81
2020/12/04 04:25:32;;;;;;;10.38;5.82;;;3.10;62.60;;;;;;4995773;28;20018;-80
2020/12/04 04:28:02;;;;;;;11.00;6.55;;;3.10;62.10;;;;;;5013376;28;20034;-80
2020/12/04 04:30:32;;;;;;;10.48;6.65;;;3.10;62.60;;;;;;4995711;28;20022;-80
2020/12/04 04:33:02;;;;;;;11.45;6.35;;;3.10;63.80;;;;;;5013489;28;20026;-80
2020/12/04 04:35:34;;;;;;;8.88;6.18;;;3.10;63.40;;;;;;5013396;28;20038;-81
2020/12/04 04:38:00;;;;;;;10.40;6.38;;;3.10;63.70;;;;;;4996819;28;20034;-81
2020/12/04 04:40:30;;;;;;;10.07;5.65;;;3.10;63.90;;;;;;4995530;28;20018;-82
2020/12/04 04:43:25;;;;;;;10.82;6.30;;;3.10;63.70;;;;;;4995707;28;20036;-82
2020/12/04 04:46:13;;;;;;;7.43;5.50;;;3.00;63.70;;;;;;4993671;28;20109;-82
2020/12/04 04:48:54;;;;;;;8.68;4.93;;;3.00;63.70;;;;;;4996319;28;20116;-82
2020/12/04 04:51:32;;;;;;;8.95;6.10;;;3.10;63.70;;;;;;5013402;28;20030;-80
2020/12/04 04:54:01;;;;;;;9.88;5.55;;;3.10;63.70;;;;;;4993570;28;20042;-77
2020/12/04 04:56:29;;;;;;;9.60;5.65;;;3.20;63.80;;;;;;5013593;28;20048;-81
2020/12/04 04:59:36;;;;;;;10.52;5.85;;;3.10;63.50;;;;;;5013909;28;20036;-82
2020/12/04 05:02:14;;;;;;;10.55;5.78;;;3.20;63.50;;;;;;4972092;28;20069;-81
2020/12/04 05:04:55;;;;;;;8.45;5.50;;;3.10;64.20;;;;;;4991893;28;20046;-81
2020/12/04 05:07:36;;;;;;;8.35;5.40;;;3.10;63.40;;;;;;4992640;28;20029;-81
2020/12/04 05:10:17;;;;;;;10.35;6.20;;;3.10;63.70;;;;;;4993761;28;20030;-81
2020/12/04 05:12:58;;;;;;;11.13;5.85;;;3.10;63.70;;;;;;4992369;28;20034;-80
2020/12/04 05:15:26;;;;;;;9.77;6.10;;;3.10;63.70;;;;;;4992176;28;20026;-80
2020/12/04 05:18:34;;;;;;;9.27;6.00;;;3.10;64.00;;;;;;4992472;28;20043;-80
2020/12/04 05:21:03;;;;;;;11.63;6.15;;;3.00;64.40;;;;;;4993462;28;20026;-81
2020/12/04 05:23:53;;;;;;;12.35;6.80;;;3.00;64.90;;;;;;4975387;28;20039;-81
2020/12/04 05:26:42;;;;;;;12.02;6.90;;;2.90;65.60;;;;;;4976327;28;20365;-82
2020/12/04 05:29:14;;;;;;;8.57;5.95;;;2.90;66.00;;;;;;4993645;28;20054;-83
2020/12/04 05:31:45;;;;;;;11.25;5.78;;;2.90;66.20;;;;;;4993294;28;20113;-81
2020/12/04 05:34:24;;;;;;;12.23;6.65;;;2.90;66.30;;;;;;4976631;28;20126;-82
2020/12/04 05:36:58;;;;;;;9.05;5.82;;;2.80;66.40;;;;;;4976613;28;20042;-81
2020/12/04 05:39:44;;;;;;;11.30;6.80;;;2.90;66.40;;;;;;4961589;28;20031;-82
2020/12/04 05:42:33;;;;;;;11.98;5.90;;;3.00;66.30;;;;;;4994254;28;20038;-82
2020/12/04 05:45:12;;;;;;;12.60;6.30;;;3.00;66.00;;;;;;4997024;28;20098;-81
2020/12/04 05:47:44;;;;;;;13.73;6.65;;;3.10;65.70;;;;;;4997553;28;20026;-81
2020/12/04 05:50:14;;;;;;;13.15;6.75;;;3.10;65.20;;;;;;4996965;28;20089;-82
2020/12/04 05:53:04;;;;;;;8.95;5.75;;;3.10;64.70;;;;;;4997500;28;20033;-81
2020/12/04 05:55:55;;;;;;;7.88;5.03;;;3.20;64.80;;;;;;4997550;28;20088;-81
2020/12/04 05:58:31;;;;;;;10.02;5.25;;;3.10;64.90;;;;;;4998297;28;20480;-80
2020/12/04 06:01:04;;;;;;;9.38;5.75;;;3.20;64.90;;;;;;4996435;28;20498;-81
2020/12/04 06:03:30;;;;;;;10.05;5.25;;;3.20;65.10;;;;;;4980504;28;20412;-80
2020/12/04 06:06:22;;;;;;;9.55;5.18;;;3.10;65.20;;;;;;4998578;28;20026;-81
2020/12/04 06:08:50;;;;;;;8.13;5.10;;;3.10;65.60;;;;;;5014810;28;20113;-80
2020/12/04 06:11:20;;;;;;;7.00;4.32;;;3.00;66.00;;;;;;4982299;28;20030;-80
2020/12/04 06:13:50;;;;;;;7.63;5.07;;;3.00;66.20;;;;;;4967086;28;20033;-80
2020/12/04 06:16:19;;;;;;;8.95;4.97;;;2.90;66.90;;;;;;5016063;28;20091;-80
2020/12/04 06:18:45;;;;;;;7.82;4.63;;;2.90;67.30;;;;;;4982773;28;20030;-80
2020/12/04 06:22:04;;;;;;;9.77;5.22;;;2.90;67.20;;;;;;5016667;28;20426;-81
2020/12/04 06:25:19;;;;;;;9.98;5.82;;;3.00;67.20;;;;;;5016539;28;20026;-82
2020/12/04 06:27:56;;;;;;;12.45;6.22;;;2.90;67.80;;;;;;5004708;28;20045;-81
2020/12/04 06:30:28;;;;;;;10.52;5.90;;;2.80;68.20;;;;;;5016642;28;20064;-82
2020/12/04 06:33:29;;;;;;;10.60;5.40;;;2.80;68.40;;;;;;5010805;28;20220;-81
2020/12/04 06:35:55;;;;;;;10.02;6.20;;;2.90;68.70;;;;;;5017936;28;20053;-80
2020/12/04 06:38:58;;;;;;;9.05;5.82;;;2.90;68.70;;;;;;5017920;28;20022;-81
2020/12/04 06:42:01;;;;;;;9.50;5.72;;;2.90;68.30;;;;;;5007193;28;20041;-81
2020/12/04 06:44:33;;;;;;;9.13;4.85;;;2.90;68.10;;;;;;5016424;28;20056;-81
2020/12/04 06:47:03;;;;;;;9.75;5.18;;;2.90;68.10;;;;;;5015907;28;20030;-82
2020/12/04 06:49:39;;;;;;;12.02;5.30;;;2.90;68.40;;;;;;5013228;28;20076;-82
2020/12/04 06:52:20;;;;;;;10.43;5.70;;;2.90;68.90;;;;;;5014886;28;20033;-81
2020/12/04 06:54:52;;;;;;;12.50;6.70;;;2.90;69.20;;;;;;5014090;28;20030;-82
2020/12/04 06:57:24;;;;;;;11.52;6.22;;;2.90;69.40;;;;;;4997447;28;20087;-81
2020/12/04 06:59:52;;;;;;;9.70;6.10;;;2.90;69.70;;;;;;4981494;28;20034;-82
2020/12/04 07:02:23;;;;;;;9.43;5.53;;;2.80;70.00;;;;;;4997477;28;20030;-81
2020/12/04 07:04:50;;;;;;;11.45;6.15;;;2.80;70.40;;;;;;4975867;28;20054;-82
2020/12/04 07:07:21;;;;;;;8.75;5.95;;;2.80;70.80;;;;;;4986679;28;20034;-82
2020/12/04 07:10:03;;;;;;;11.70;6.32;;;2.80;71.10;;;;;;4995100;28;20023;-83
2020/12/04 07:12:30;;;;;;;10.90;6.53;;;2.60;71.40;;;;;;4978463;28;20499;-83
2020/12/04 07:14:57;;;;;;;10.63;6.32;;;2.60;71.60;;;;;;4994798;28;20506;-82
2020/12/04 07:17:28;;;;;;;10.57;5.53;;;2.60;71.70;;;;;;4995623;28;20038;-83
2020/12/04 07:19:59;;;;;;;10.98;6.22;;;2.60;71.80;;;;;;4997304;28;20022;-83
2020/12/04 07:22:27;;;;;;;10.23;6.07;;;2.70;71.80;;;;;;4993859;28;20038;-83
2020/12/04 07:24:55;;;;;;;12.68;6.43;;;2.70;71.40;;;;;;4994438;28;20018;-83
2020/12/04 07:27:29;;;;;;;9.32;5.32;;;2.70;71.30;;;;;;4994643;28;20097;-83
2020/12/04 07:29:58;;;;;;;8.88;4.80;;;2.80;71.30;;;;;;4994201;28;20122;-84
2020/12/04 07:33:11;;;;;;;9.18;4.90;;;2.70;71.30;;;;;;4995769;28;20039;-84
2020/12/04 07:36:19;;;;;;;8.13;4.63;;;2.80;71.30;;;;;;4989850;28;20047;-83
2020/12/04 07:39:07;;;;;;;13.82;6.38;;;2.80;71.50;;;;;;4993749;28;20113;-83
2020/12/04 07:41:49;;;;;;;11.85;5.43;;;2.80;71.50;;;;;;4995684;28;20034;-83
2020/12/04 07:44:47;;;;;;;8.57;5.07;;;2.70;71.60;;;;;;4996247;28;20460;-84
2020/12/04 07:47:57;;;;;;;10.70;5.55;;;2.80;71.60;;;;;;4983585;28;20041;-84
2020/12/04 07:50:30;;;;;;;9.93;5.00;;;2.90;71.60;;;;;;4994833;28;20034;-83
2020/12/04 07:53:40;;;;;;;8.48;5.05;;;3.00;71.60;;;;;;4982905;28;20026;-84
2020/12/04 07:56:57;;;;;;;10.63;5.28;;;3.00;71.30;;;;;;4997441;28;20435;-84
2020/12/04 07:59:57;;;;;;;9.68;5.38;;;2.90;70.90;;;;;;4992621;28;20034;-83
2020/12/04 08:02:27;;;;;;;13.02;5.88;;;2.90;70.80;;;;;;4976882;28;20034;-82
2020/12/04 08:05:25;;;;;;;9.73;4.90;;;2.90;71.00;;;;;;5005128;28;20046;-82
2020/12/04 08:07:57;;;;;;;10.90;4.90;;;3.00;71.00;;;;;;5014058;28;20084;-82
2020/12/04 08:10:43;;;;;;;9.07;5.25;;;2.90;71.20;;;;;;4997155;28;20041;-83
2020/12/04 08:13:38;;;;;;;8.38;5.32;;;3.00;71.10;;;;;;5015320;28;20033;-83
2020/12/04 08:16:50;;;;;;;7.43;4.57;;;3.00;70.80;;;;;;5015075;28;20038;-84
2020/12/04 08:19:37;;;;;;;41.75;6.70;;;3.10;70.70;;;;;;5012569;28;20092;-76
2020/12/04 08:22:06;;;;;;;16.52;6.03;;;3.30;75.40;;;;;;5013124;28;20106;-77
2020/12/04 08:24:39;;;;;;;16.05;6.57;;;3.60;72.60;;;;;;4995667;28;20112;-77
2020/12/04 08:27:13;;;;;;;10.13;5.10;;;4.10;74.00;;;;;;5009054;28;20034;-77
2020/12/04 08:29:46;;;;;;;12.18;5.78;;;4.40;70.70;;;;;;4995580;28;20485;-76
2020/12/04 08:32:18;;;;;;;10.00;5.72;;;4.60;68.90;;;;;;5013217;28;20040;-77
2020/12/04 08:34:44;;;;;;;10.75;5.50;;;4.80;67.50;;;;;;4995445;28;20022;-74
2020/12/04 08:37:12;;;;;;;8.80;4.60;;;4.90;66.70;;;;;;4995332;28;20041;-76
2020/12/04 08:39:45;;;;;;;10.48;4.63;;;5.10;65.90;;;;;;5012984;28;20054;-76
2020/12/04 08:42:30;;;;;;;9.38;5.05;;;5.50;67.30;;;;;;5013273;28;20026;-76
2020/12/04 08:45:08;;;;;;;11.10;5.40;;;5.80;65.40;;;;;;5013078;28;20022;-76
2020/12/04 08:47:47;;;;;;;11.70;5.20;;;6.10;63.90;;;;;;4995402;28;20017;-76
2020/12/04 08:50:19;;;;;;;9.02;4.30;;;6.30;62.30;;;;;;5012666;28;20364;-75
2020/12/04 08:52:51;;;;;;;10.45;4.97;;;6.50;62.50;;;;;;5012664;28;20014;-76
2020/12/04 08:55:27;;;;;;;7.40;4.65;;;6.70;61.50;;;;;;5013002;28;20479;-76
2020/12/04 08:57:55;;;;;;;7.63;4.43;;;6.80;60.90;;;;;;5012843;28;20080;-75
2020/12/04 09:00:30;;;;;;;12.68;4.65;;;6.90;59.20;;;;;;4979063;28;20022;-76
2020/12/04 09:02:55;;;;;;;7.70;4.22;;;6.90;57.40;;;;;;5012809;28;20140;-76
2020/12/04 09:05:22;;;;;;;9.68;5.05;;;6.80;56.50;;;;;;5012665;28;20054;-76
2020/12/04 09:07:48;;;;;;;11.75;5.65;;;6.80;57.50;;;;;;4995206;28;20041;-76
2020/12/04 09:10:17;;;;;;;8.77;5.70;;;6.90;58.00;;;;;;5012685;28;20026;-76
2020/12/04 09:12:44;;;;;;;7.60;4.63;;;6.90;57.80;;;;;;5012880;28;20050;-76
2020/12/04 09:15:13;;;;;;;9.27;5.30;;;7.00;57.50;;;;;;4994762;28;20390;-79
2020/12/04 09:17:39;;;;;;;14.13;6.65;;;7.00;56.60;;;;;;4998693;28;20042;-81
2020/12/04 09:20:08;;;;;;;12.27;6.70;;;6.70;55.00;;;;;;5015962;28;20205;-79
2020/12/04 09:22:34;;;;;;;9.57;5.95;;;6.40;54.20;;;;;;4999360;28;20049;-79
2020/12/04 09:25:01;;;;;;;9.43;5.72;;;6.10;54.90;;;;;;5016453;28;20029;-78
2020/12/04 09:27:30;;;;;;;13.40;5.97;;;5.70;54.60;;;;;;5016410;28;20026;-79
2020/12/04 09:29:56;;;;;;;13.45;6.60;;;5.50;55.20;;;;;;4998767;28;20116;-79
2020/12/04 09:32:25;;;;;;;9.88;6.13;;;5.30;55.50;;;;;;5016746;28;20437;-80
2020/12/04 09:34:51;;;;;;;8.68;4.78;;;5.20;55.70;;;;;;5000013;28;20382;-79
2020/12/04 09:37:40;;;;;;;12.02;5.45;;;5.10;56.10;;;;;;5014850;28;20034;-78
2020/12/04 09:40:17;;;;;;;10.05;4.95;;;5.00;56.40;;;;;;5015959;28;20494;-77
2020/12/04 09:42:44;;;;;;;7.03;4.60;;;5.00;56.70;;;;;;4999475;28;20468;-76
2020/12/04 09:45:22;;;;;;;10.88;4.90;;;4.90;57.00;;;;;;4998667;28;20026;-79
2020/12/04 09:47:47;;;;;;;8.48;5.00;;;4.80;58.30;;;;;;5014069;28;20040;-79
2020/12/04 09:50:15;;;;;;;9.10;5.40;;;4.80;58.10;;;;;;4982303;28;20288;-78
2020/12/04 09:52:40;;;;;;;9.95;5.03;;;4.80;58.30;;;;;;5016220;28;20100;-77
2020/12/04 09:55:07;;;;;;;8.55;5.53;;;4.90;58.60;;;;;;4998443;28;20571;-78
2020/12/04 09:57:34;;;;;;;10.40;5.50;;;5.00;58.70;;;;;;5014640;28;20125;-81
2020/12/04 10:00:05;;;;;;;10.35;5.03;;;5.00;58.90;;;;;;4998805;28;20026;-79
2020/12/04 10:02:31;;;;;;;13.20;5.18;;;5.00;59.00;;;;;;5016006;28;20485;-76
2020/12/04 10:04:59;;;;;;;12.52;5.50;;;5.00;58.80;;;;;;4997887;28;20054;-79
2020/12/04 10:07:25;;;;;;;8.55;5.03;;;5.00;58.70;;;;;;5014316;28;20022;-78
2020/12/04 10:09:51;;;;;;;10.73;5.30;;;5.00;58.10;;;;;;4998015;28;20034;-77
2020/12/04 10:12:25;;;;;;;13.40;5.43;;;4.90;57.80;;;;;;5015653;28;20172;-78
2020/12/04 10:14:52;;;;;;;7.13;4.53;;;4.90;57.70;;;;;;5010561;28;20064;-76
2020/12/04 10:17:18;;;;;;;11.45;5.38;;;4.80;58.10;;;;;;5016160;28;20487;-80
2020/12/04 10:19:44;;;;;;;8.05;4.80;;;4.90;59.80;;;;;;4998083;28;20030;-77
2020/12/04 10:22:10;;;;;;;10.63;5.07;;;5.00;60.30;;;;;;4997588;28;20032;-78
2020/12/04 10:24:40;;;;;;;12.40;6.35;;;5.10;60.00;;;;;;4997537;28;20025;-77
2020/12/04 10:27:08;;;;;;;15.75;5.97;;;5.30;60.10;;;;;;5015287;28;20100;-77
2020/12/04 10:29:36;;;;;;;14.57;6.15;;;5.30;60.20;;;;;;4982394;28;20032;-85
2020/12/04 10:32:06;;;;;;;23.90;6.95;;;5.40;60.20;;;;;;5016648;28;20550;-85
2020/12/04 10:34:38;;;;;;;15.65;6.07;;;5.40;60.30;;;;;;5014058;28;20033;-78
2020/12/04 10:37:27;;;;;;;11.73;6.40;;;5.40;59.80;;;;;;5014029;28;20045;-79
2020/12/04 10:39:53;;;;;;;10.48;5.95;;;5.40;59.80;;;;;;4997444;28;20076;-79
2020/12/04 10:42:24;;;;;;;10.27;5.93;;;5.50;59.90;;;;;;4981862;28;20075;-78
2020/12/04 10:44:54;;;;;;;10.80;5.35;;;5.50;59.70;;;;;;5015125;28;20061;-77
2020/12/04 10:47:22;;;;;;;11.30;5.78;;;5.50;59.30;;;;;;5014253;28;20042;-78
2020/12/04 10:49:51;;;;;;;8.75;5.47;;;5.50;59.30;;;;;;4981668;28;20030;-77
2020/12/04 10:52:18;;;;;;;8.65;5.53;;;5.50;59.10;;;;;;5014753;28;20054;-78
2020/12/04 10:54:45;;;;;;;13.27;5.15;;;5.50;58.70;;;;;;5014847;28;20105;-78
2020/12/04 10:57:10;;;;;;;7.78;5.10;;;5.50;58.80;;;;;;5013632;28;20038;-78
2020/12/04 10:59:41;;;;;;;8.93;4.85;;;5.50;58.60;;;;;;4994576;28;20034;-78
2020/12/04 11:02:25;;;;;;;10.38;5.65;;;5.60;58.50;;;;;;4997186;28;20436;-78
2020/12/04 11:07:43;;;;;;;10.07;5.35;;;5.40;58.30;;;;;;5014393;28;20077;-79
2020/12/04 11:10:12;;;;;;;11.15;6.13;;;5.40;58.30;;;;;;5014341;28;20068;-78
2020/12/04 11:12:39;;;;;;;10.32;5.90;;;5.30;57.90;;;;;;4997039;28;20026;-78
2020/12/04 11:15:07;;;;;;;11.45;5.75;;;5.20;57.90;;;;;;4996950;28;20045;-79
2020/12/04 11:17:35;;;;;;;10.52;6.07;;;5.20;58.30;;;;;;5014626;28;20033;-79
2020/12/04 11:20:02;;;;;;;11.88;6.65;;;5.20;58.10;;;;;;5014035;28;20498;-79
2020/12/04 11:22:34;;;;;;;11.48;6.82;;;5.20;59.00;;;;;;4986306;28;20089;-79
2020/12/04 11:25:15;;;;;;;12.80;7.03;;;5.20;58.40;;;;;;5014068;28;20130;-78
2020/12/04 11:27:54;;;;;;;11.27;7.28;;;5.20;58.60;;;;;;5014226;28;20026;-85
2020/12/04 11:30:34;;;;;;;15.40;7.65;;;5.10;58.70;;;;;;5013919;28;20121;-79
2020/12/04 11:33:03;;;;;;;11.63;7.50;;;5.00;59.00;;;;;;4999375;28;20083;-79
2020/12/04 11:35:28;;;;;;;12.88;7.57;;;5.00;59.20;;;;;;5014276;28;20037;-78
2020/12/04 11:38:15;;;;;;;14.55;8.77;;;4.90;59.50;;;;;;5013087;28;20034;-79
2020/12/04 11:40:42;;;;;;;19.10;9.60;;;4.90;59.60;;;;;;5013639;28;20029;-79
2020/12/04 11:43:11;;;;;;;13.60;8.25;;;4.80;61.00;;;;;;5013654;28;20029;-78
2020/12/04 11:45:41;;;;;;;13.70;7.93;;;4.80;60.30;;;;;;5003905;28;20028;-77
2020/12/04 11:48:25;;;;;;;21.00;9.48;;;4.90;60.40;;;;;;5029101;28;20033;-79
2020/12/04 11:51:11;;;;;;;18.48;9.75;;;4.90;60.40;;;;;;5023702;28;20113;-79
2020/12/04 11:53:55;;;;;;;16.40;9.02;;;4.80;60.40;;;;;;5021029;28;20486;-81
2020/12/04 11:56:24;;;;;;;20.48;8.13;;;4.80;60.40;;;;;;4996822;28;20057;-82
2020/12/04 11:58:51;;;;;;;13.32;8.38;;;4.80;60.40;;;;;;4981380;28;20053;-81
2020/12/04 12:01:17;;;;;;;14.73;8.07;;;4.90;60.50;;;;;;4997122;28;20030;-83
2020/12/04 12:03:45;;;;;;;14.57;7.97;;;4.90;60.50;;;;;;4980442;28;20445;-84
2020/12/04 12:06:24;;;;;;;21.55;7.88;;;5.00;60.50;;;;;;5013172;28;20057;-81
2020/12/04 12:08:51;;;;;;;17.75;8.63;;;5.00;60.70;;;;;;5012732;28;20076;-81
2020/12/04 12:11:18;;;;;;;23.25;8.32;;;5.10;61.30;;;;;;4980805;28;20040;-83
2020/12/04 12:13:47;;;;;;;13.70;7.32;;;5.10;61.50;;;;;;5014389;28;20037;-82
2020/12/04 12:16:15;;;;;;;12.27;7.40;;;5.10;61.60;;;;;;4996324;28;20038;-82
2020/12/04 12:19:10;;;;;;;13.40;7.63;;;5.00;61.80;;;;;;5012563;28;20225;-83
2020/12/04 12:22:00;;;;;;;14.20;7.85;;;5.00;62.20;;;;;;5014562;28;20077;-83
2020/12/04 12:24:56;;;;;;;13.57;8.10;;;4.90;63.00;;;;;;5014245;28;20387;-83
2020/12/04 12:27:42;;;;;;;14.63;7.15;;;4.90;63.70;;;;;;4995264;28;20193;-84
2020/12/04 12:30:28;;;;;;;17.35;7.72;;;4.90;64.20;;;;;;5014686;28;20022;-84
2020/12/04 12:32:53;;;;;;;;;;;4.90;64.80;;;;;;4979841;28;20045;-84
2020/12/04 12:35:21;;;;;;;12.25;6.40;;;4.80;65.20;;;;;;4996386;28;19909;-84
2020/12/04 12:37:53;;;;;;;13.85;6.47;;;4.90;65.30;;;;;;4996714;28;20041;-84
2020/12/04 12:40:19;;;;;;;12.48;6.18;;;4.80;65.10;;;;;;4997642;28;20117;-82
2020/12/04 12:42:44;;;;;;;14.85;7.00;;;4.60;65.80;;;;;;4997102;28;20522;-81
2020/12/04 12:45:13;;;;;;;12.95;5.75;;;4.50;66.40;;;;;;4995584;28;20080;-79
2020/12/04 12:47:38;;;;;;;12.27;6.28;;;4.50;67.50;;;;;;4996732;28;20037;-83
2020/12/04 12:50:06;;;;;;;11.52;6.43;;;4.50;66.80;;;;;;4998178;28;20026;-84
2020/12/04 12:52:32;;;;;;;11.00;5.78;;;4.50;66.90;;;;;;4999287;28;20025;-82
2020/12/04 12:54:58;;;;;;;13.65;6.13;;;4.50;67.40;;;;;;4996537;28;20033;-82
2020/12/04 12:57:23;;;;;;;8.68;5.72;;;4.50;67.40;;;;;;4996033;28;20044;-81
2020/12/04 12:59:49;;;;;;;10.43;6.53;;;4.50;67.60;;;;;;4995864;28;20026;-81
2020/12/04 13:02:16;;;;;;;18.95;7.30;;;4.60;67.30;;;;;;5013844;28;20100;-82
2020/12/04 13:04:42;;;;;;;15.45;6.60;;;4.60;67.20;;;;;;5013821;28;20391;-81
2020/12/04 13:07:19;;;;;;;9.20;5.60;;;4.60;67.00;;;;;;4996275;28;20021;-82
2020/12/04 13:09:55;;;;;;;11.23;6.60;;;4.70;67.10;;;;;;4988515;28;20030;-82
2020/12/04 13:12:40;;;;;;;10.10;6.03;;;4.70;67.10;;;;;;4992975;28;20101;-81
2020/12/04 13:15:21;;;;;;;14.27;6.40;;;4.80;66.90;;;;;;5013952;28;20061;-80
2020/12/04 13:24:36;;;;;;;12.90;6.15;;;4.90;66.70;;;;;;5024837;28;20056;-80
2020/12/04 13:28:09;;;;;;;11.60;6.95;;;4.90;66.10;;;;;;5013208;28;20033;-83
2020/12/04 13:31:36;;;;;;;12.13;6.13;;;4.80;65.60;;;;;;4952851;28;20058;-81
2020/12/04 13:34:14;;;;;;;;;;;4.90;65.50;;;;;;4983558;28;20035;-81